Flight Track Log - Related Links

Times and Time Zones

All times are in EDT time to prevent confusion due to time zone crossing. See the C-GUAC flight status page for this flight to view local times or setup timezone preferences in your user account.

Time Position Orientation Groundspeed Altitude Reporting Facility
EDT Latitude Longitude Course Direction KTS MPH feet Rate Location/Type
Mon 01:17:44 AM 42.7250 -73.8058 200° South 196 226 1,700  Level Boston Center
Mon 01:18:21 AM 42.6950 -73.8206 200° South 204 235 3,800 3,490 Climbing Boston Center
Mon 01:19:22 AM 42.7008 -73.9106 275° West 243 280 7,400 3,529 Climbing Boston Center
Mon 01:20:20 AM 42.7256 -74.0117 288° West 280 322 10,800 3,814 Climbing Boston Center
Mon 01:21:20 AM 42.7428 -74.1197 282° West 289 333 14,900 2,500 Climbing Boston Center
Mon 01:26:32 AM 42.8267 -74.7858 280° West 377 434 26,300 2,012 Climbing FlightAware ADS-B
Mon 01:29:50 AM 42.8840 -75.2490 280° West 393 452 32,000 1,500 Climbing FlightAware ADS-B
Mon 01:30:20 AM 42.8930 -75.3250 280° West 409 471 32,000  Level FlightAware ADS-B
Mon 01:30:56 AM 42.9040 -75.4170 280° West 418 481 32,000  Level FlightAware ADS-B
Mon 01:31:32 AM 42.9150 -75.5110 280° West 422 486 32,000  Level FlightAware ADS-B
Mon 01:31:41 AM 42.9170 -75.5286 280° West 422 486 32,000  Level FlightAware ADS-B (CYYZ)
Mon 01:31:50 AM 42.9196 -75.5518 279° West 422 486 32,000  Level FlightAware ADS-B
Mon 01:32:09 AM 42.9260 -75.6050 280° West 424 488 32,000  Level FlightAware ADS-B
Mon 01:32:23 AM 42.9302 -75.6416 280° West 421 484 32,000  Level FlightAware ADS-B (CYYZ)
Mon 01:32:44 AM 42.9370 -75.7000 280° West 419 482 32,000  Level FlightAware ADS-B
Mon 01:33:08 AM 42.9375 -75.7034 279° West 417 480 32,000  Level FlightAware ADS-B (CYYZ)
Mon 01:33:21 AM 42.9480 -75.7940 280° West 417 480 32,000  Level FlightAware ADS-B
Mon 01:33:34 AM 42.9505 -75.8153 279° West 415 478 32,000  Level FlightAware ADS-B (EPKK / KRK)
Mon 01:33:53 AM 42.9573 -75.8746 279° West 413 475 32,000  Level FlightAware ADS-B (CYYZ)
Mon 01:33:56 AM 42.9590 -75.8860 280° West 415 478 32,000  Level FlightAware ADS-B
Mon 01:34:13 AM 42.9633 -75.9269 279° West 414 476 32,000  Level FlightAware ADS-B (EPKK / KRK)
Mon 01:34:26 AM 42.9670 -75.9620 279° West 414 476 32,000  Level FlightAware ADS-B
Mon 01:34:38 AM 42.9708 -75.9933 279° West 413 475 32,000  Level FlightAware ADS-B (CYYZ)
Mon 01:34:54 AM 42.9752 -76.0324 279° West 413 475 32,000  Level FlightAware ADS-B (EPKK / KRK)
Mon 01:35:02 AM 42.9780 -76.0560 279° West 413 475 32,000  Level FlightAware ADS-B
Mon 01:35:23 AM 42.9839 -76.1092 279° West 412 474 32,000  Level FlightAware ADS-B (CYYZ)
Mon 01:35:32 AM 42.9860 -76.1330 279° West 412 474 32,000  Level FlightAware ADS-B
Mon 01:35:34 AM 42.9862 -76.1300 279° West 412 474 32,000  Level FlightAware ADS-B (EPKK / KRK)
Mon 01:36:09 AM 42.9970 -76.2263 279° West 411 473 32,000  Level FlightAware ADS-B (CYYZ)
Mon 01:36:15 AM 42.9988 -76.2422 279° West 412 474 32,000  Level FlightAware ADS-B (EPKK / KRK)
Mon 01:36:38 AM 43.0060 -76.3020 279° West 412 474 32,000  Level FlightAware ADS-B
Mon 01:36:53 AM 43.0096 -76.3388 279° West 411 473 32,000  Level FlightAware ADS-B (CYYZ)
Mon 01:36:55 AM 43.0102 -76.3445 279° West 412 474 32,000  Level FlightAware ADS-B (EPKK / KRK)
Mon 01:37:14 AM 43.0160 -76.3940 279° West 412 474 32,000  Level FlightAware ADS-B
Mon 01:37:35 AM 43.0213 -76.4454 279° West 412 474 32,000  Level FlightAware ADS-B (EPKK / KRK)
Mon 01:37:38 AM 43.0222 -76.4536 279° West 411 473 32,000  Level FlightAware ADS-B (CYYZ)
Mon 01:37:50 AM 43.0260 -76.4870 279° West 412 474 32,000  Level FlightAware ADS-B
Mon 01:38:15 AM 43.0326 -76.5486 278° West 412 474 32,000  Level FlightAware ADS-B (EPKK / KRK)
Mon 01:38:24 AM 43.0351 -76.5717 279° West 412 474 32,000  Level FlightAware ADS-B (CYYZ)
Mon 01:38:26 AM 43.0360 -76.5790 279° West 413 475 32,000  Level FlightAware ADS-B
Mon 01:38:56 AM 43.0441 -76.6543 278° West 412 474 32,000  Level FlightAware ADS-B (EPKK / KRK)
Mon 01:39:09 AM 43.0478 -76.6895 279° West 412 474 32,000  Level FlightAware ADS-B (CYYZ)
Mon 01:39:33 AM 43.0540 -76.7500 279° West 414 476 32,000  Level FlightAware ADS-B
Mon 01:39:36 AM 43.0547 -76.7540 278° West 413 475 32,000  Level FlightAware ADS-B (EPKK / KRK)
Mon 01:39:52 AM 43.0597 -76.8007 279° West 414 476 32,000  Level FlightAware ADS-B (CYYZ)
Mon 01:40:03 AM 43.0620 -76.8260 279° West 416 479 32,000  Level FlightAware ADS-B
Mon 01:40:15 AM 43.0653 -76.8525 278° West 416 479 32,000  Level FlightAware ADS-B (EPKK / KRK)
Mon 01:40:39 AM 43.0720 -76.9210 279° West 418 481 32,000  Level FlightAware ADS-B
Mon 01:40:55 AM 43.0770 -76.9635 278° West 419 482 32,000  Level FlightAware ADS-B (EPKK / KRK)
Mon 01:41:08 AM 43.0810 -76.9990 279° West 421 484 32,000  Level FlightAware ADS-B
Mon 01:41:25 AM 43.0849 -77.0391 279° West 421 484 32,000  Level FlightAware ADS-B (CYYZ)
Mon 01:41:35 AM 43.0879 -77.0675 278° West 422 486 32,000  Level FlightAware ADS-B (EPKK / KRK)
Mon 01:41:45 AM 43.0910 -77.0930 279° West 423 487 32,000  Level FlightAware ADS-B
Mon 01:42:10 AM 43.0976 -77.1609 279° West 423 487 32,000  Level FlightAware ADS-B (CYYZ)
Mon 01:42:14 AM 43.0990 -77.1730 279° West 425 489 32,000  Level FlightAware ADS-B
Mon 01:42:50 AM 43.1090 -77.2680 279° West 426 490 32,000  Level FlightAware ADS-B
Mon 01:42:55 AM 43.1093 -77.2750 278° West 425 489 32,000  Level FlightAware ADS-B (CYYZ)
Mon 01:42:56 AM 43.1100 -77.2819 278° West 425 489 32,000  Level FlightAware ADS-B (EPKK / KRK)
Mon 01:43:20 AM 43.1170 -77.3460 279° West 427 491 32,000  Level FlightAware ADS-B
Mon 01:43:36 AM 43.1207 -77.3865 278° West 426 490 32,000  Level FlightAware ADS-B (EPKK / KRK)
Mon 01:43:40 AM 43.1220 -77.3995 278° West 426 490 32,000  Level FlightAware ADS-B (CYYZ)
Mon 01:43:56 AM 43.1260 -77.4440 278° West 428 493 32,000  Level FlightAware ADS-B
Mon 01:44:17 AM 43.1319 -77.4978 278° West 428 493 32,000  Level FlightAware ADS-B (EPKK / KRK)
Mon 01:44:24 AM 43.1338 -77.5169 278° West 427 491 32,000  Level FlightAware ADS-B (CYYZ)
Mon 01:44:32 AM 43.1360 -77.5380 278° West 429 494 32,000  Level FlightAware ADS-B
Mon 01:44:56 AM 43.1423 -77.6021 278° West 429 494 32,000  Level FlightAware ADS-B (EPKK / KRK)
Mon 01:45:07 AM 43.1450 -77.6270 278° West 429 494 32,000  Level FlightAware ADS-B
Mon 01:45:10 AM 43.1462 -77.6420 278° West 427 491 32,000  Level FlightAware ADS-B (CYYZ)
Mon 01:45:36 AM 43.1525 -77.7057 278° West 428 493 32,000  Level FlightAware ADS-B (EPKK / KRK)
Mon 01:45:55 AM 43.1578 -77.7592 278° West 427 491 32,000  Level FlightAware ADS-B (CYYZ)
Mon 01:46:40 AM 43.1696 -77.8812 278° West 426 490 32,000  Level FlightAware ADS-B (CYYZ)
Mon 01:47:26 AM 43.1815 -78.0039 278° West 426 490 32,000  Level FlightAware ADS-B (CYYZ)
Mon 01:48:11 AM 43.1931 -78.1246 278° West 424 488 32,000 -568 Level FlightAware ADS-B (CYYZ)
Mon 01:48:40 AM 43.2004 -78.2020 277° West 422 486 31,300 -1,909 Descending FlightAware ADS-B (EPLB / LUZ)
Mon 01:48:55 AM 43.2041 -78.2409 278° West 428 493 30,600 -2,604 Descending FlightAware ADS-B (CYYZ)
Mon 01:49:33 AM 43.2136 -78.3433 277° West 437 503 29,000 -2,667 Descending FlightAware ADS-B (EPLB / LUZ)
Mon 01:49:40 AM 43.2157 -78.3657 278° West 440 506 28,600 -2,739 Descending FlightAware ADS-B (CYYZ)
Mon 01:50:19 AM 43.2253 -78.4704 277° West 439 505 26,900 -2,667 Descending FlightAware ADS-B (EPLB / LUZ)
Mon 01:50:25 AM 43.2270 -78.4890 278° West 435 501 26,600 -2,400 Descending FlightAware ADS-B (CYYZ)
Mon 01:50:49 AM 43.2328 -78.5524 277° West 427 491 25,700 -2,478 Descending FlightAware ADS-B (EPLB / LUZ)
Mon 01:51:11 AM 43.2383 -78.6130 278° West 423 487 24,700 -2,687 Descending FlightAware ADS-B (CYYZ)
Mon 01:51:56 AM 43.2489 -78.7314 277° West 415 478 22,700 -2,706 Descending FlightAware ADS-B (CYYZ)
Mon 01:52:02 AM 43.2502 -78.7458 277° West 416 479 22,400 -2,800 Descending FlightAware ADS-B (EPLB / LUZ)
Mon 01:52:26 AM 43.2558 -78.8084 277° West 412 474 21,300 -2,700 Descending FlightAware ADS-B (CYYZ)
Mon 01:52:42 AM 43.2595 -78.8505 277° West 410 472 20,600 -2,800 Descending FlightAware ADS-B (EPLB / LUZ)
Mon 01:52:56 AM 43.2627 -78.8861 277° West 407 468 19,900 -2,903 Descending FlightAware ADS-B (CYYZ)
Mon 01:53:13 AM 43.2664 -78.9290 277° West 403 464 19,100 -3,000 Descending FlightAware ADS-B (EPLB / LUZ)
Mon 01:53:42 AM 43.2727 -79.0004 277° West 383 441 17,600 -3,000 Descending FlightAware ADS-B (CYYZ)
Mon 01:53:55 AM 43.2753 -79.0304 277° West 375 432 17,000 -2,933 Descending FlightAware ADS-B (EPLB / LUZ)
Mon 01:54:27 AM 43.2816 -79.1020 277° West 352 405 15,400 -3,150 Descending FlightAware ADS-B (CYYZ)
Mon 01:54:35 AM 43.2829 -79.1176 277° West 347 399 14,900 -2,930 Descending FlightAware ADS-B (EPLB / LUZ)
Mon 01:55:10 AM 43.2896 -79.1960 277° West 324 373 13,300 -2,595 Descending FlightAware ADS-B (EPLB / LUZ)
Mon 01:55:12 AM 43.2899 -79.1995 277° West 323 372 13,300 -2,400 Level FlightAware ADS-B (CYYZ)
Mon 01:55:50 AM 43.2979 -79.2734 289° West 302 348 11,700 -2,533 Descending FlightAware ADS-B (EPLB / LUZ)
Mon 01:55:57 AM 43.3023 -79.2851 302° West 295 339 11,400 -2,250 Descending FlightAware ADS-B (CYYZ)
Mon 01:56:06 AM 43.3108 -79.2984 315° West 292 336 11,100 -2,471 Descending FlightAware ADS-B (CYYZ)
Mon 01:56:14 AM 43.3187 -79.3067 326° Northwest 289 333 10,700 -3,000 Descending FlightAware ADS-B (CYHM)
Mon 01:56:16 AM 43.3210 -79.3086 330° Northwest 289 333 10,600 -2,276 Descending FlightAware ADS-B (CYYZ)
Mon 01:56:43 AM 43.3528 -79.3289 340° North 281 323 9,600 -2,400 Descending FlightAware ADS-B (CYYZ)
Mon 01:56:56 AM 43.3705 -79.3359 347° North 279 321 9,000 -2,400 Descending FlightAware ADS-B (CYYZ)
Mon 01:57:03 AM 43.3776 -79.3382 347° North 279 321 8,800 -2,538 Descending FlightAware ADS-B (EPLB / LUZ)
Mon 01:57:22 AM 43.4023 -79.3454 348° North 282 325 7,900 -2,870 Descending FlightAware ADS-B (EPLB / LUZ)
Mon 01:57:26 AM 43.4082 -79.3470 349° North 281 323 7,700 -3,000 Descending FlightAware ADS-B (CYYZ)
Mon 01:57:42 AM 43.4288 -79.3529 349° North 283 326 6,900 -3,000 Descending FlightAware ADS-B (CYYZ)
Mon 01:58:02 AM 43.4541 -79.3606 345° North 284 327 5,900 -2,800 Descending FlightAware ADS-B (EPLB / LUZ)
Mon 01:58:12 AM 43.4663 -79.3660 340° North 281 323 5,500 -2,400 Descending FlightAware ADS-B (CYYZ)
Mon 01:58:22 AM 43.4777 -79.3738 330° Northwest 276 318 5,100 -1,756 Descending FlightAware ADS-B (CYYZ)
Mon 01:58:53 AM 43.5041 -79.4077 310° West 250 288 4,300 -1,500 Descending FlightAware ADS-B (EPLB / LUZ)
Mon 01:58:58 AM 43.5089 -79.4156 310° West 245 282 4,200 -600 Descending FlightAware ADS-B (CYYZ)
Mon 01:59:13 AM 43.5189 -79.4325 310° West 230 265 4,100 -667 Descending FlightAware ADS-B (CYYZ)
Mon 01:59:34 AM 43.5333 -79.4554 313° West 209 241 3,800 -621 Descending FlightAware ADS-B (EPLB / LUZ)
Mon 01:59:42 AM 43.5382 -79.4621 317° Northwest 200 230 3,800 -522 Level FlightAware ADS-B (CYYZ)
Mon 01:59:57 AM 43.5489 -79.4750 321° Northwest 200 230 3,600 -783 Descending FlightAware ADS-B (CYYZ)
Mon 02:00:05 AM 43.5544 -79.4812 320° Northwest 200 230 3,500 -1,000 Descending FlightAware ADS-B (EPLB / LUZ)
Mon 02:00:27 AM 43.5689 -79.4993 317° Northwest 203 234 3,100 -1,304 Descending FlightAware ADS-B (EPLB / LUZ)
Mon 02:00:28 AM 43.5701 -79.5008 316° Northwest 203 234 3,000 -1,200 Descending FlightAware ADS-B (CYYZ)
Mon 02:00:42 AM 43.5800 -79.5147 314° West 201 231 2,800 -955 Descending FlightAware ADS-B (CYYZ)
Mon 02:01:12 AM 43.5987 -79.5389 319° Northwest 182 209 2,300 -1,050 Descending FlightAware ADS-B (CYYZ)
Mon 02:01:22 AM 43.6044 -79.5459 317° Northwest 180 207 2,100 -857 Descending FlightAware ADS-B (EPLB / LUZ)
Mon 02:01:26 AM 43.6075 -79.5500 317° Northwest 178 205 2,100 -857 Level FlightAware ADS-B (CYYZ)
Mon 02:01:43 AM 43.6153 -79.5606 315° West 175 201 1,800 -938 Descending FlightAware ADS-B (EPLB / LUZ)
Mon 02:01:58 AM 43.6255 -79.5741 318° Northwest 162 186 1,600 -900 Descending FlightAware ADS-B (CYYZ)
Mon 02:02:03 AM 43.6283 -79.5775 318° Northwest 158 182 1,500 -857 Descending FlightAware ADS-B (EPLB / LUZ)
Mon 02:02:12 AM 43.6333 -79.5836 318° Northwest 150 173 1,400 -774 Descending FlightAware ADS-B (CYYZ)
Mon 02:02:34 AM 43.6431 -79.5968 316° Northwest 134 154 1,100 -774 Descending FlightAware ADS-B (EPLB / LUZ)
Mon 02:02:43 AM 43.6474 -79.6024 318° Northwest 133 153 1,000 -600 Descending FlightAware ADS-B (CYYZ)
Mon 02:02:54 AM 43.6525 -79.6089 317° Northwest 135 155 900 -800 Descending FlightAware ADS-B (EPLB / LUZ)
Mon 02:02:58 AM 43.6535 -79.6102 316° Northwest 135 155 800 -600 Descending FlightAware ADS-B (CYYZ)
Mon 02:03:14 AM 43.6577 -79.6157 317° Northwest 133 153 700 -600 Descending FlightAware ADS-B (EPLB / LUZ)
Mon 02:03:28 AM 43.6669 -79.6277 317° Northwest 133 153 500 -643 Descending FlightAware ADS-B (CYYZ)
Mon 02:03:42 AM 43.6740 -79.6370 317° Northwest 133 153 400 -429 Descending FlightAware ADS-B (CYYZ)

Login

Don't have an account? Register now (free) for customized features, flight alerts, and more!